As Olivia — DYQC — position and weather

sailwx.info

Track history (hours):
 
Tides and Currents Weather Stations Pressure Air Temp Water Temp Dewpoint Dewpoint Depression Visibility Wind Speed Wind Dir Waves Ship Positions

As Olivia

Last reported at 2016-Jul-10 01:19 UTC. Time now 2016-Jul-28 16:23 UTC.
Position N 31°21' E 032°18'.
Warning: this ship's position is 18 days out of date.

Length 146 m; draft 10 m.

Type: Tanker. MMSI: 548767000.

Date/timePositionNaut miles runAvg speedWind from/ knotsBaromVisibWave heightAir tempDewpointWater temp
2016-Jul-10 01:19N 31°21' E 032°18'0 0.0
2016-Jul-10 00:28N 31°21' E 032°18'0 0.0
2016-Jul-09 22:25N 31°21' E 032°18'0 0.0
2016-Jul-09 21:31N 31°21' E 032°18'1 1.3
2016-Jul-09 20:31N 31°23' E 032°17'8 8.1
2016-Jul-09 19:30N 31°30' E 032°14'1314.0
2016-Jul-09 18:33N 31°40' E 032°03'2013.8
2016-Jul-09 17:08N 31°49' E 031°42'814.2
2016-Jul-09 16:33N 31°52' E 031°33'3514.4
2016-Jul-09 14:09N 32°03' E 030°55'914.4
2016-Jul-09 13:29N 32°06' E 030°44'  
2016-Jul-07 01:27N 36°16' E 015°03'1213.5
2016-Jul-07 00:33N 36°20' E 014°49'1414.0
2016-Jul-06 23:33N 36°24' E 014°33'1414.2
2016-Jul-06 22:33N 36°29' E 014°16'1414.1
2016-Jul-06 21:33N 36°33' E 013°59'1414.1
2016-Jul-06 20:33N 36°37' E 013°43'1414.2
2016-Jul-06 19:33N 36°42' E 013°26'1414.4
2016-Jul-06 18:33N 36°46' E 013°09'1413.6
2016-Jul-06 17:33N 36°50' E 012°53'1413.5
2016-Jul-06 16:33N 36°55' E 012°37'1313.3
2016-Jul-06 15:33N 36°58' E 012°21'13813.7
2016-Jul-06 05:33N 37°54' E 009°42'1413.7
2016-Jul-06 04:33N 37°53' E 009°25'1414.3
2016-Jul-06 03:33N 37°51' E 009°07'69513.6
2016-Jul-04 00:33N 36°00' W 005°12'1211.7
2016-Jul-03 23:33N 36°06' W 005°24'1 0.8
2016-Jul-03 22:32N 36°06' W 005°25'0 0.0
2016-Jul-03 21:32N 36°06' W 005°25'0 0.0
2016-Jul-03 20:32N 36°06' W 005°25'0 0.1
2016-Jul-03 19:32N 36°06' W 005°25'0 0.0
2016-Jul-03 18:32N 36°06' W 005°25'0 0.1
2016-Jul-03 17:32N 36°06' W 005°25'0 0.0
2016-Jul-03 16:32N 36°06' W 005°25'1 1.1
2016-Jul-03 15:34N 36°05' W 005°24'7 6.6
2016-Jul-03 14:34N 35°59' W 005°25'1813.3
2016-Jul-03 13:11N 35°54' W 005°47'  
Track history (hours):
 
Tides and Currents Weather Stations Pressure Air Temp Water Temp Dewpoint Dewpoint Depression Visibility Wind Speed Wind Dir Waves Ship Positions

As Olivia

Last reported at 2016-Jul-10 01:19 UTC. Time now 2016-Jul-28 16:23 UTC.
Position N 31°21' E 032°18'.
Warning: this ship's position is 18 days out of date.

Length 146 m; draft 10 m.

Type: Tanker. MMSI: 548767000.

Date/timePositionNaut miles runAvg speedWind from/ knotsBaromVisibWave heightAir tempDewpointWater temp
2016-Jul-10 01:19N 31°21' E 032°18'0 0.0
2016-Jul-10 00:28N 31°21' E 032°18'0 0.0
2016-Jul-09 22:25N 31°21' E 032°18'0 0.0
2016-Jul-09 21:31N 31°21' E 032°18'1 1.3
2016-Jul-09 20:31N 31°23' E 032°17'8 8.1
2016-Jul-09 19:30N 31°30' E 032°14'1314.0
2016-Jul-09 18:33N 31°40' E 032°03'2013.8
2016-Jul-09 17:08N 31°49' E 031°42'814.2
2016-Jul-09 16:33N 31°52' E 031°33'3514.4
2016-Jul-09 14:09N 32°03' E 030°55'914.4
2016-Jul-09 13:29N 32°06' E 030°44'  
2016-Jul-07 01:27N 36°16' E 015°03'1213.5
2016-Jul-07 00:33N 36°20' E 014°49'1414.0
2016-Jul-06 23:33N 36°24' E 014°33'1414.2
2016-Jul-06 22:33N 36°29' E 014°16'1414.1
2016-Jul-06 21:33N 36°33' E 013°59'1414.1
2016-Jul-06 20:33N 36°37' E 013°43'1414.2
2016-Jul-06 19:33N 36°42' E 013°26'1414.4
2016-Jul-06 18:33N 36°46' E 013°09'1413.6
2016-Jul-06 17:33N 36°50' E 012°53'1413.5
2016-Jul-06 16:33N 36°55' E 012°37'1313.3
2016-Jul-06 15:33N 36°58' E 012°21'13813.7
2016-Jul-06 05:33N 37°54' E 009°42'1413.7
2016-Jul-06 04:33N 37°53' E 009°25'1414.3
2016-Jul-06 03:33N 37°51' E 009°07'69513.6
2016-Jul-04 00:33N 36°00' W 005°12'1211.7
2016-Jul-03 23:33N 36°06' W 005°24'1 0.8
2016-Jul-03 22:32N 36°06' W 005°25'0 0.0
2016-Jul-03 21:32N 36°06' W 005°25'0 0.0
2016-Jul-03 20:32N 36°06' W 005°25'0 0.1
2016-Jul-03 19:32N 36°06' W 005°25'0 0.0
2016-Jul-03 18:32N 36°06' W 005°25'0 0.1
2016-Jul-03 17:32N 36°06' W 005°25'0 0.0
2016-Jul-03 16:32N 36°06' W 005°25'1 1.1
2016-Jul-03 15:34N 36°05' W 005°24'7 6.6
2016-Jul-03 14:34N 35°59' W 005°25'1813.3
2016-Jul-03 13:11N 35°54' W 005°47'  

Dump ship's entire track history